createdAt,value
2023-04-11T00:02:09.684Z,2.10
2023-04-11T00:04:23.879Z,1.90
2023-04-11T00:06:36.630Z,2.10
2023-04-11T00:08:49.487Z,2.30
2023-04-11T00:11:03.681Z,1.80
2023-04-11T00:13:16.441Z,1.90
2023-04-11T00:15:33.766Z,1.80
2023-04-11T00:17:46.838Z,2.40
2023-04-11T00:20:02.777Z,2.10
2023-04-11T00:22:17.272Z,2.60
2023-04-11T00:24:29.865Z,2.10
2023-04-11T00:26:42.764Z,2.50
2023-04-11T00:28:56.326Z,2.10
2023-04-11T00:31:10.463Z,2.20
2023-04-11T00:33:23.341Z,1.90
2023-04-11T00:35:39.066Z,2.00
2023-04-11T00:37:57.042Z,1.80
2023-04-11T00:40:13.391Z,1.70
2023-04-11T00:42:26.437Z,1.60
2023-04-11T00:44:39.113Z,1.60
2023-04-11T00:46:52.315Z,1.70
2023-04-11T00:49:05.522Z,1.90
2023-04-11T00:51:19.168Z,1.80
2023-04-11T00:53:33.932Z,1.80
2023-04-11T00:55:46.828Z,1.60
2023-04-11T00:57:59.948Z,1.70
2023-04-11T01:00:14.464Z,1.80
2023-04-11T01:02:27.908Z,2.00
2023-04-11T01:04:41.393Z,1.80
2023-04-11T01:06:57.581Z,1.80
2023-04-11T01:09:10.318Z,1.70
2023-04-11T01:11:23.692Z,1.60
2023-04-11T01:13:37.661Z,1.40
2023-04-11T01:15:50.343Z,1.40
2023-04-11T01:18:03.235Z,1.60
2023-04-11T01:20:17.030Z,1.40
2023-04-11T01:22:31.444Z,1.50
2023-04-11T01:24:45.011Z,1.60
2023-04-11T01:26:57.931Z,1.80
2023-04-11T01:29:13.414Z,2.00
2023-04-11T01:31:26.095Z,2.00
2023-04-11T01:33:38.904Z,1.50
2023-04-11T01:35:51.749Z,2.00
2023-04-11T01:38:06.512Z,2.00
2023-04-11T01:40:20.351Z,2.00
2023-04-11T01:42:34.008Z,2.40
2023-04-11T01:44:47.628Z,1.90
2023-04-11T01:47:00.605Z,1.80
2023-04-11T01:49:16.664Z,1.50
2023-04-11T01:51:30.241Z,1.20
2023-04-11T01:53:43.211Z,0.90
2023-04-11T01:55:56.238Z,0.70
2023-04-11T01:58:09.071Z,0.70
2023-04-11T02:00:23.208Z,0.70
2023-04-11T02:02:37.033Z,0.70
2023-04-11T02:04:50.011Z,0.70
2023-04-11T02:07:02.734Z,0.70
2023-04-11T02:09:15.841Z,0.80
2023-04-11T02:11:28.654Z,0.70
2023-04-11T02:13:41.547Z,0.80
2023-04-11T02:15:54.150Z,0.70
2023-04-11T02:18:06.925Z,0.60
2023-04-11T02:20:20.304Z,0.70
2023-04-11T02:22:32.929Z,0.70
2023-04-11T02:24:47.637Z,0.60
2023-04-11T02:27:00.235Z,0.60
2023-04-11T02:29:13.169Z,0.60
2023-04-11T02:31:26.059Z,0.60
2023-04-11T02:33:39.071Z,0.60
2023-04-11T02:35:51.850Z,0.70
2023-04-11T02:38:05.214Z,0.80
2023-04-11T02:40:19.505Z,0.60
2023-04-11T02:42:32.040Z,0.60
2023-04-11T02:44:44.815Z,0.60
2023-04-11T02:46:57.617Z,0.70
2023-04-11T02:49:10.984Z,0.60
2023-04-11T02:51:24.239Z,0.70
2023-04-11T02:53:37.481Z,0.60
2023-04-11T02:55:50.458Z,0.60
2023-04-11T02:58:03.492Z,0.50
2023-04-11T03:00:17.976Z,0.60
2023-04-11T03:02:34.798Z,0.50
2023-04-11T03:04:49.891Z,0.40
2023-04-11T03:07:04.277Z,0.60
2023-04-11T03:09:17.061Z,0.50
2023-04-11T03:11:32.061Z,0.60
2023-04-11T03:13:46.196Z,0.50
2023-04-11T03:15:59.219Z,0.60
2023-04-11T03:18:14.734Z,0.50
2023-04-11T03:20:29.922Z,0.60
2023-04-11T03:22:43.008Z,0.60
2023-04-11T03:24:56.576Z,0.70
2023-04-11T03:27:10.516Z,0.70
2023-04-11T03:29:24.307Z,0.80
2023-04-11T03:31:45.536Z,0.60
2023-04-11T03:34:00.388Z,0.80
2023-04-11T03:36:14.154Z,0.70
2023-04-11T03:38:27.200Z,0.90
2023-04-11T03:40:40.047Z,0.60
2023-04-11T03:43:04.700Z,1.00
2023-04-11T03:45:22.906Z,0.70
2023-04-11T03:47:36.832Z,0.70
2023-04-11T03:49:51.879Z,0.70
2023-04-11T03:52:06.001Z,0.60
2023-04-11T03:54:27.459Z,0.70
2023-04-11T03:56:59.220Z,0.60
2023-04-11T03:59:13.309Z,0.70
2023-04-11T04:01:39.281Z,0.80
2023-04-11T04:03:52.318Z,0.70
2023-04-11T04:06:05.535Z,0.70
2023-04-11T04:08:18.551Z,0.60
2023-04-11T04:10:34.787Z,0.50
2023-04-11T04:12:47.736Z,0.50
2023-04-11T04:15:05.485Z,0.40
2023-04-11T04:17:19.380Z,0.50
2023-04-11T04:19:32.925Z,0.50
2023-04-11T04:21:47.053Z,0.50
2023-04-11T04:24:04.882Z,0.60
2023-04-11T04:29:05.970Z,0.50
2023-04-11T04:31:36.336Z,0.70
2023-04-11T04:33:54.087Z,0.50
2023-04-11T04:36:13.410Z,0.50
2023-04-11T04:38:27.149Z,0.70
2023-04-11T04:40:43.119Z,0.60
2023-04-11T04:43:04.079Z,0.50
2023-04-11T04:57:16.868Z,0.50
2023-04-11T04:59:32.736Z,0.60
2023-04-11T05:01:54.817Z,0.60
2023-04-11T05:04:47.037Z,0.60
2023-04-11T05:07:26.164Z,0.60
2023-04-11T05:10:01.382Z,0.50
2023-04-11T05:12:14.847Z,0.50
2023-04-11T05:14:45.364Z,0.40
2023-04-11T05:17:07.522Z,0.40
2023-04-11T05:19:40.625Z,0.60
2023-04-11T05:22:14.676Z,0.50
2023-04-11T05:24:34.209Z,0.60
2023-04-11T05:27:07.108Z,0.60
2023-04-11T05:29:20.452Z,0.60
2023-04-11T05:31:33.775Z,0.50
2023-04-11T05:33:46.749Z,0.70
2023-04-11T05:35:59.778Z,0.50
2023-04-11T05:38:12.718Z,0.60
2023-04-11T05:40:25.580Z,0.60
2023-04-11T05:42:38.208Z,0.70
2023-04-11T05:44:51.400Z,0.60
2023-04-11T05:47:04.564Z,0.60
2023-04-11T05:49:18.227Z,0.60
2023-04-11T05:51:33.107Z,0.60
2023-04-11T05:53:45.913Z,0.60
2023-04-11T05:55:58.372Z,0.70
2023-04-11T05:58:13.087Z,0.50
2023-04-11T06:00:29.630Z,0.60
2023-04-11T06:02:43.170Z,0.60
2023-04-11T06:04:55.829Z,0.90
2023-04-11T06:07:09.446Z,0.90
2023-04-11T06:09:22.449Z,0.90
2023-04-11T06:11:34.962Z,0.60
2023-04-11T06:13:47.740Z,0.80
2023-04-11T06:16:00.992Z,0.70
2023-04-11T06:18:14.056Z,0.70
2023-04-11T06:20:27.032Z,0.80
2023-04-11T06:22:41.390Z,0.70
2023-04-11T06:25:06.164Z,0.80
2023-04-11T06:27:19.841Z,1.00
2023-04-11T06:29:33.010Z,0.80
2023-04-11T06:31:49.883Z,0.90
2023-04-11T06:34:03.194Z,0.80
2023-04-11T06:36:16.999Z,1.10
2023-04-11T06:38:55.881Z,0.80
2023-04-11T06:41:28.662Z,0.90
2023-04-11T06:43:55.404Z,0.90
2023-04-11T06:46:27.635Z,0.90
2023-04-11T06:49:00.592Z,0.90
2023-04-11T06:51:34.259Z,0.90
2023-04-11T06:53:46.865Z,1.00
2023-04-11T06:56:00.902Z,0.90
2023-04-11T06:58:14.039Z,1.20
2023-04-11T07:00:27.693Z,1.10
2023-04-11T07:02:46.123Z,1.30
2023-04-11T07:05:10.294Z,0.90
2023-04-11T07:07:22.779Z,1.10
2023-04-11T07:09:48.220Z,1.30
2023-04-11T07:12:11.505Z,1.30
2023-04-11T07:14:44.487Z,1.40
2023-04-11T07:16:57.453Z,1.30
2023-04-11T07:19:10.592Z,1.20
2023-04-11T07:21:26.558Z,1.10
2023-04-11T07:23:59.215Z,1.30
2023-04-11T07:26:12.929Z,1.30
2023-04-11T07:28:47.183Z,1.10
2023-04-11T07:31:00.622Z,1.50
2023-04-11T07:33:13.536Z,1.60
2023-04-11T07:35:26.386Z,1.50
2023-04-11T07:37:46.555Z,1.40
2023-04-11T07:40:13.069Z,1.40
2023-04-11T07:42:26.039Z,1.80
2023-04-11T07:44:47.473Z,1.60
2023-04-11T07:47:00.249Z,1.60
2023-04-11T07:49:13.469Z,1.40
2023-04-11T07:51:38.078Z,2.00
2023-04-11T07:54:11.227Z,1.70
2023-04-11T07:56:24.101Z,1.50
2023-04-11T07:58:58.179Z,1.70
2023-04-11T08:01:30.739Z,1.70
2023-04-11T08:03:43.766Z,1.80
2023-04-11T08:06:00.665Z,2.00
2023-04-11T08:08:14.996Z,1.70
2023-04-11T08:10:37.933Z,2.10
2023-04-11T08:12:54.100Z,1.90
2023-04-11T08:15:06.973Z,2.40
2023-04-11T08:17:30.134Z,2.60
2023-04-11T08:20:03.492Z,2.30
2023-04-11T08:22:16.615Z,2.50
2023-04-11T08:24:39.133Z,2.00
2023-04-11T08:26:54.735Z,1.40
2023-04-11T08:29:17.989Z,1.80
2023-04-11T08:31:45.410Z,1.60
2023-04-11T08:34:19.045Z,1.90
2023-04-11T08:36:32.299Z,1.90
2023-04-11T08:38:48.736Z,2.10
2023-04-11T08:41:21.497Z,1.90
2023-04-11T08:43:54.903Z,1.90
2023-04-11T08:46:12.814Z,2.20
2023-04-11T08:48:29.513Z,2.40
2023-04-11T08:50:42.794Z,2.30
2023-04-11T08:52:59.987Z,1.80
2023-04-11T08:55:28.299Z,2.20
2023-04-11T08:57:41.162Z,1.50
2023-04-11T09:00:15.641Z,2.00
2023-04-11T09:02:38.615Z,1.70
2023-04-11T09:05:01.592Z,1.60
2023-04-11T09:07:50.990Z,1.50
2023-04-11T09:10:29.542Z,1.70
2023-04-11T09:12:42.701Z,1.60
2023-04-11T09:15:24.175Z,1.70
2023-04-11T09:17:46.293Z,1.60
2023-04-11T09:20:22.111Z,1.40
2023-04-11T09:22:43.429Z,1.30
2023-04-11T09:25:08.037Z,1.10
2023-04-11T09:27:27.269Z,1.20
2023-04-11T09:29:53.899Z,1.00
2023-04-11T09:32:10.405Z,0.90
2023-04-11T09:34:33.867Z,1.10
2023-04-11T09:37:06.906Z,1.30
2023-04-11T09:39:30.611Z,1.00
2023-04-11T09:42:04.375Z,0.80
2023-04-11T09:44:20.715Z,0.90
2023-04-11T09:47:05.813Z,0.80
2023-04-11T09:49:23.905Z,1.00
2023-04-11T09:51:57.382Z,0.80
2023-04-11T09:54:32.905Z,0.60
2023-04-11T09:56:57.361Z,0.80
2023-04-11T09:59:14.322Z,0.70
2023-04-11T10:02:17.000Z,0.70
2023-04-11T10:04:32.276Z,4.30
2023-04-11T10:06:50.920Z,1.90
2023-04-11T10:09:12.058Z,1.30
2023-04-11T10:11:24.911Z,2.00
2023-04-11T10:13:53.167Z,1.60
2023-04-11T10:16:16.882Z,1.80
2023-04-11T10:18:29.532Z,1.90
2023-04-11T10:20:54.716Z,1.90
2023-04-11T10:23:08.789Z,1.60
2023-04-11T10:25:26.323Z,1.90
2023-04-11T10:30:22.478Z,1.70
2023-04-11T10:32:35.002Z,2.30
2023-04-11T10:35:35.227Z,1.20
2023-04-11T10:37:49.345Z,1.50
2023-04-11T10:40:14.932Z,1.50
2023-04-11T10:42:47.842Z,1.30
2023-04-11T10:45:28.799Z,1.70
2023-04-11T10:47:42.168Z,1.90
2023-04-11T10:49:55.587Z,2.10
2023-04-11T10:52:25.280Z,1.90
2023-04-11T10:54:37.855Z,1.80
2023-04-11T10:57:03.492Z,1.90
2023-04-11T10:59:52.038Z,1.80
2023-04-11T11:02:05.503Z,1.90
2023-04-11T11:04:19.620Z,2.30
2023-04-11T11:06:32.410Z,2.30
2023-04-11T11:08:47.934Z,1.90
2023-04-11T11:11:05.815Z,2.10
2023-04-11T11:13:20.410Z,2.10
2023-04-11T11:15:35.208Z,2.00
2023-04-11T11:17:48.590Z,2.20
2023-04-11T11:20:01.012Z,2.40
2023-04-11T11:22:20.108Z,1.90
2023-04-11T11:24:32.947Z,2.00
2023-04-11T11:26:47.712Z,2.20
2023-04-11T11:29:01.210Z,1.90
2023-04-11T11:31:13.625Z,1.80
2023-04-11T11:33:27.634Z,1.80
2023-04-11T11:35:40.259Z,2.00
2023-04-11T11:37:53.168Z,2.20
2023-04-11T11:40:10.477Z,1.80
2023-04-11T11:42:23.587Z,1.90
2023-04-11T11:44:36.888Z,1.50
2023-04-11T11:47:06.778Z,1.80
2023-04-11T11:49:19.185Z,1.80
2023-04-11T11:51:42.154Z,1.80
2023-04-11T11:56:37.225Z,1.80
2023-04-11T11:58:52.961Z,1.70
2023-04-11T12:01:05.651Z,1.80
2023-04-11T12:03:22.119Z,1.60
2023-04-11T12:05:37.591Z,1.80
2023-04-11T12:07:50.176Z,1.80
2023-04-11T12:10:07.729Z,1.60
2023-04-11T12:12:20.595Z,1.50
2023-04-11T12:14:33.017Z,1.30
2023-04-11T12:16:46.151Z,6.60
2023-04-11T12:19:00.739Z,1.80
2023-04-11T12:21:13.526Z,1.90
2023-04-11T12:23:26.531Z,3.50
2023-04-11T12:25:39.087Z,3.40
2023-04-11T12:27:52.006Z,3.10
2023-04-11T12:30:05.168Z,1.20
2023-04-11T12:32:17.957Z,0.60
2023-04-11T12:34:30.464Z,0.60
2023-04-11T12:36:43.597Z,8.10
2023-04-11T12:38:56.304Z,2.10
2023-04-11T12:41:30.384Z,2.10
2023-04-11T12:43:41.587Z,2.40
2023-04-11T12:45:54.375Z,2.60
2023-04-11T12:48:06.892Z,2.00
2023-04-11T12:50:19.597Z,1.90
2023-04-11T12:52:33.062Z,1.80
2023-04-11T12:54:45.729Z,1.80
2023-04-11T12:56:59.453Z,2.10
2023-04-11T12:59:12.099Z,2.10
2023-04-11T13:01:24.637Z,1.90
2023-04-11T13:03:39.381Z,1.80
2023-04-11T13:05:53.686Z,2.00
2023-04-11T13:08:06.126Z,2.10
2023-04-11T13:10:19.123Z,2.30
2023-04-11T13:12:31.549Z,2.00
2023-04-11T13:14:43.936Z,1.70
2023-04-11T13:16:56.691Z,2.00
2023-04-11T13:19:09.158Z,2.00
2023-04-11T13:21:21.848Z,2.10
2023-04-11T13:23:34.460Z,2.20
2023-04-11T13:25:47.061Z,2.20
2023-04-11T13:27:59.494Z,1.80
2023-04-11T13:30:14.996Z,1.90
2023-04-11T13:32:27.466Z,2.10
2023-04-11T13:34:40.126Z,1.90
2023-04-11T13:36:52.938Z,2.00
2023-04-11T13:39:06.713Z,2.10
2023-04-11T13:41:19.746Z,2.30
2023-04-11T13:43:32.458Z,1.90
2023-04-11T13:45:44.973Z,1.80
2023-04-11T13:47:58.933Z,2.30
2023-04-11T13:50:14.138Z,2.40
2023-04-11T13:52:26.501Z,2.30
2023-04-11T13:54:39.217Z,2.40
2023-04-11T13:56:51.638Z,2.20
2023-04-11T13:59:04.074Z,2.20
2023-04-11T14:01:16.854Z,2.00
2023-04-11T14:03:34.073Z,2.10
2023-04-11T14:05:47.853Z,2.20
2023-04-11T14:08:00.264Z,2.20
2023-04-11T14:10:14.508Z,2.10
2023-04-11T14:12:27.008Z,1.90
2023-04-11T14:14:39.581Z,1.90
2023-04-11T14:16:52.477Z,2.40
2023-04-11T14:19:05.473Z,2.40
2023-04-11T14:21:18.173Z,2.10
2023-04-11T14:23:31.182Z,2.20
2023-04-11T14:25:43.554Z,2.30
2023-04-11T14:27:56.352Z,2.40
2023-04-11T14:30:09.929Z,2.30
2023-04-11T14:32:22.871Z,2.10
2023-04-11T14:34:35.474Z,2.30
2023-04-11T14:36:49.068Z,2.30
2023-04-11T14:39:01.714Z,2.50
2023-04-11T14:41:14.277Z,1.80
2023-04-11T14:43:26.838Z,2.10
2023-04-11T14:45:38.656Z,1.90
2023-04-11T14:47:51.760Z,1.80
2023-04-11T14:50:04.668Z,1.90
2023-04-11T14:52:17.252Z,2.00
2023-04-11T14:54:29.872Z,1.70
2023-04-11T14:56:42.536Z,1.80
2023-04-11T14:58:55.882Z,2.10
2023-04-11T15:01:08.615Z,1.90
2023-04-11T15:03:21.311Z,2.00
2023-04-11T15:05:34.029Z,2.00
2023-04-11T15:07:47.261Z,1.80
2023-04-11T15:09:59.778Z,2.10
2023-04-11T15:12:12.415Z,1.80
2023-04-11T15:14:30.255Z,2.00
2023-04-11T15:16:43.002Z,2.20
2023-04-11T15:18:55.800Z,1.90
2023-04-11T15:21:08.835Z,1.80
2023-04-11T15:23:21.783Z,1.90
2023-04-11T15:25:34.127Z,1.80
2023-04-11T15:27:47.178Z,2.10
2023-04-11T15:30:00.687Z,1.70
2023-04-11T15:32:13.321Z,1.80
2023-04-11T15:34:25.949Z,2.00
2023-04-11T15:36:39.511Z,2.10
2023-04-11T15:38:52.588Z,1.60
2023-04-11T15:41:05.044Z,2.00
2023-04-11T15:43:18.196Z,2.00
2023-04-11T15:45:30.629Z,1.70
2023-04-11T15:47:43.289Z,2.00
2023-04-11T15:49:56.226Z,2.00
2023-04-11T15:52:09.037Z,2.40
2023-04-11T15:54:21.672Z,1.70
2023-04-11T15:56:35.000Z,1.90
2023-04-11T15:58:48.131Z,2.10
2023-04-11T16:01:02.411Z,1.80
2023-04-11T16:03:15.403Z,1.70
2023-04-11T16:05:28.884Z,1.80
2023-04-11T16:07:41.472Z,1.70
2023-04-11T16:09:55.314Z,1.90
2023-04-11T16:12:08.569Z,2.00
2023-04-11T16:14:21.408Z,1.70
2023-04-11T16:16:34.277Z,1.80
2023-04-11T16:18:47.285Z,1.80
2023-04-11T16:21:00.028Z,1.80
2023-04-11T16:23:12.455Z,1.60
2023-04-11T16:25:25.021Z,1.60
2023-04-11T16:27:37.311Z,2.90
2023-04-11T16:29:50.358Z,1.40
2023-04-11T16:32:03.362Z,1.50
2023-04-11T16:34:16.363Z,1.90
2023-04-11T16:36:30.053Z,1.50
2023-04-11T16:38:42.797Z,1.50
2023-04-11T16:40:55.743Z,1.70
2023-04-11T16:43:08.164Z,1.60
2023-04-11T16:45:21.218Z,1.60
2023-04-11T16:47:33.655Z,1.70
2023-04-11T16:49:47.103Z,1.80
2023-04-11T16:51:59.989Z,1.90
2023-04-11T16:54:13.379Z,1.70
2023-04-11T16:56:27.773Z,1.90
2023-04-11T16:58:41.371Z,1.90
2023-04-11T17:00:54.458Z,1.60
2023-04-11T17:03:07.171Z,1.70
2023-04-11T17:05:21.151Z,2.30
2023-04-11T17:07:34.381Z,1.70
2023-04-11T17:09:50.181Z,1.90
2023-04-11T17:12:04.263Z,1.60
2023-04-11T17:14:17.047Z,1.90
2023-04-11T17:16:30.307Z,1.40
2023-04-11T17:18:42.962Z,1.50
2023-04-11T17:20:55.369Z,1.30
2023-04-11T17:23:08.530Z,1.60
2023-04-11T17:25:21.659Z,1.60
2023-04-11T17:27:34.128Z,1.40
2023-04-11T17:29:46.676Z,1.50
2023-04-11T17:31:59.503Z,1.40
2023-04-11T17:34:12.122Z,1.50
2023-04-11T17:36:25.532Z,1.30
2023-04-11T17:38:38.353Z,1.70
2023-04-11T17:40:51.333Z,1.20
2023-04-11T17:43:06.820Z,1.60
2023-04-11T17:45:20.327Z,1.50
2023-04-11T17:47:33.680Z,1.50
2023-04-11T17:49:47.148Z,1.70
2023-04-11T17:52:00.063Z,1.60
2023-04-11T17:54:12.657Z,1.90
2023-04-11T17:56:25.615Z,1.60
2023-04-11T17:58:39.411Z,1.50
2023-04-11T18:00:57.476Z,1.30
2023-04-11T18:03:12.538Z,1.20
2023-04-11T18:05:27.579Z,1.50
2023-04-11T18:07:43.083Z,1.50
2023-04-11T18:09:56.297Z,1.40
2023-04-11T18:12:08.839Z,1.50
2023-04-11T18:14:23.270Z,1.20
2023-04-11T18:16:39.396Z,0.50
2023-04-11T18:18:59.391Z,0.60
2023-04-11T18:21:16.020Z,0.60
2023-04-11T18:23:28.724Z,1.50
2023-04-11T18:25:43.129Z,1.10
2023-04-11T18:27:56.248Z,1.10
2023-04-11T18:30:11.284Z,1.10
2023-04-11T18:32:28.928Z,1.00
2023-04-11T18:34:45.513Z,1.30
2023-04-11T18:36:58.232Z,0.60
2023-04-11T18:39:11.336Z,0.60
2023-04-11T18:41:24.054Z,0.50
2023-04-11T18:43:38.388Z,1.60
2023-04-11T18:45:54.994Z,0.90
2023-04-11T18:48:08.201Z,1.00
2023-04-11T18:50:21.249Z,1.00
2023-04-11T18:52:34.969Z,0.90
2023-04-11T18:54:48.196Z,1.10
2023-04-11T18:57:00.694Z,1.00
2023-04-11T18:59:16.493Z,1.00
2023-04-11T19:01:31.413Z,1.00
2023-04-11T19:03:45.071Z,1.10
2023-04-11T19:05:59.293Z,1.20
2023-04-11T19:08:11.966Z,1.00
2023-04-11T19:10:25.355Z,0.90
2023-04-11T19:12:39.094Z,1.00
2023-04-11T19:14:54.060Z,0.80
2023-04-11T19:17:07.579Z,0.90
2023-04-11T19:19:23.106Z,0.80
2023-04-11T19:21:39.793Z,1.20
2023-04-11T19:23:53.408Z,0.80
2023-04-11T19:26:06.211Z,0.60
2023-04-11T19:28:19.006Z,0.50
2023-04-11T19:30:32.263Z,0.80
2023-04-11T19:32:48.443Z,0.60
2023-04-11T19:35:03.154Z,0.60
2023-04-11T19:37:17.639Z,0.60
2023-04-11T19:39:36.615Z,0.60
2023-04-11T19:41:52.542Z,0.60
2023-04-11T19:44:05.389Z,0.70
2023-04-11T19:46:19.623Z,0.60
2023-04-11T19:48:34.173Z,0.70
2023-04-11T19:50:48.025Z,0.80
2023-04-11T19:53:02.839Z,0.60
2023-04-11T19:55:17.133Z,0.70
2023-04-11T19:57:30.558Z,0.60
2023-04-11T19:59:43.276Z,0.80
2023-04-11T20:01:55.873Z,0.90
2023-04-11T20:04:08.366Z,0.80
2023-04-11T20:06:21.207Z,0.90
2023-04-11T20:08:33.708Z,0.80
2023-04-11T20:10:46.802Z,0.80
2023-04-11T20:13:00.444Z,0.90
2023-04-11T20:15:15.894Z,1.00
2023-04-11T20:17:28.725Z,0.90
2023-04-11T20:19:42.866Z,0.80
2023-04-11T20:21:56.711Z,1.00
2023-04-11T20:24:10.589Z,1.00
2023-04-11T20:26:23.568Z,1.10
2023-04-11T20:28:36.200Z,0.90
2023-04-11T20:30:48.989Z,0.90
2023-04-11T20:33:02.631Z,0.90
2023-04-11T20:35:16.570Z,1.00
2023-04-11T20:37:31.962Z,1.20
2023-04-11T20:39:44.669Z,1.00
2023-04-11T20:41:57.974Z,0.90
2023-04-11T20:44:10.939Z,1.00
2023-04-11T20:46:24.127Z,0.80
2023-04-11T20:48:36.669Z,0.90
2023-04-11T20:50:50.124Z,0.70
2023-04-11T20:53:03.441Z,0.80
2023-04-11T20:55:17.437Z,0.70
2023-04-11T20:57:31.903Z,0.80
2023-04-11T20:59:45.336Z,0.80
2023-04-11T21:01:58.292Z,0.80
2023-04-11T21:04:13.082Z,0.90
2023-04-11T21:06:27.241Z,1.00
2023-04-11T21:08:39.982Z,0.80
2023-04-11T21:10:52.803Z,0.90
2023-04-11T21:13:05.251Z,0.80
2023-04-11T21:15:18.614Z,1.00
2023-04-11T21:17:31.455Z,0.70
2023-04-11T21:19:44.269Z,0.70
2023-04-11T21:21:58.344Z,0.80
2023-04-11T21:24:12.494Z,0.80
2023-04-11T21:26:24.997Z,0.80
2023-04-11T21:28:38.465Z,0.70
2023-04-11T21:30:51.224Z,1.00
2023-04-11T21:33:03.907Z,0.90
2023-04-11T21:35:17.414Z,0.90
2023-04-11T21:37:29.973Z,0.70
2023-04-11T21:39:42.599Z,0.70
2023-04-11T21:41:55.171Z,0.90
2023-04-11T21:44:07.703Z,0.60
2023-04-11T21:46:20.917Z,0.50
2023-04-11T21:48:33.510Z,0.50
2023-04-11T21:50:46.522Z,0.70
2023-04-11T21:53:00.329Z,0.80
2023-04-11T21:55:14.379Z,0.70
2023-04-11T21:57:27.200Z,0.80
2023-04-11T21:59:42.652Z,0.60
2023-04-11T22:01:55.291Z,0.60
2023-04-11T22:04:11.898Z,0.70
2023-04-11T22:06:27.555Z,0.70
2023-04-11T22:08:40.458Z,0.70
2023-04-11T22:10:55.236Z,0.60
2023-04-11T22:13:07.754Z,1.00
2023-04-11T22:15:21.088Z,0.60
2023-04-11T22:17:33.918Z,0.60
2023-04-11T22:19:46.433Z,0.70
2023-04-11T22:21:59.111Z,0.70
2023-04-11T22:24:13.108Z,0.70
2023-04-11T22:26:27.539Z,0.90
2023-04-11T22:28:40.322Z,0.80
2023-04-11T22:30:53.001Z,0.90
2023-04-11T22:33:05.694Z,0.70
2023-04-11T22:35:18.567Z,0.90
2023-04-11T22:37:31.557Z,0.80
2023-04-11T22:39:44.351Z,0.80
2023-04-11T22:41:57.544Z,0.80
2023-04-11T22:44:10.700Z,1.00
2023-04-11T22:46:23.290Z,1.00
2023-04-11T22:48:37.440Z,0.70
2023-04-11T22:50:53.776Z,0.70
2023-04-11T22:53:10.662Z,0.70
2023-04-11T22:55:26.110Z,0.70
2023-04-11T22:57:38.954Z,1.30
2023-04-11T22:59:52.030Z,0.90
2023-04-11T23:02:04.631Z,0.80
2023-04-11T23:04:17.646Z,0.70
2023-04-11T23:06:30.673Z,1.20
2023-04-11T23:08:43.360Z,0.80
2023-04-11T23:10:56.157Z,0.60
2023-04-11T23:13:09.624Z,0.90
2023-04-11T23:15:23.807Z,0.80
2023-04-11T23:17:36.232Z,1.00
2023-04-11T23:19:49.131Z,1.60
2023-04-11T23:22:01.930Z,1.10
2023-04-11T23:24:15.743Z,1.10
2023-04-11T23:26:29.162Z,0.90
2023-04-11T23:28:41.982Z,1.10
2023-04-11T23:30:54.876Z,0.80
2023-04-11T23:33:09.557Z,0.90
2023-04-11T23:35:22.279Z,1.00
2023-04-11T23:37:35.055Z,1.00
2023-04-11T23:39:47.781Z,1.00
2023-04-11T23:42:00.984Z,1.80
2023-04-11T23:44:13.921Z,0.90
2023-04-11T23:46:27.385Z,1.00
2023-04-11T23:48:40.340Z,1.00
2023-04-11T23:50:53.401Z,1.00
2023-04-11T23:53:06.019Z,0.70
2023-04-11T23:55:18.753Z,1.00
2023-04-11T23:57:32.044Z,0.90
2023-04-11T23:59:44.650Z,0.60
